sensor_id;sensor_type;location;lat;lon;timestamp;pressure;altitude;pressure_sealevel;temperature;humidity
71643;BME280;59438;45.014;39.006;2023-04-06T00:02:22;100815.63;;;11.75;70.52
71643;BME280;59438;45.014;39.006;2023-04-06T00:04:49;100836.50;;;11.80;69.56
71643;BME280;59438;45.014;39.006;2023-04-06T00:07:15;100835.53;;;11.82;70.05
71643;BME280;59438;45.014;39.006;2023-04-06T00:09:42;100831.97;;;11.83;69.96
71643;BME280;59438;45.014;39.006;2023-04-06T00:12:08;100833.69;;;11.84;69.72
71643;BME280;59438;45.014;39.006;2023-04-06T00:14:34;100824.84;;;11.85;69.89
71643;BME280;59438;45.014;39.006;2023-04-06T00:17:01;100832.69;;;11.87;69.90
71643;BME280;59438;45.014;39.006;2023-04-06T00:19:29;100838.81;;;11.87;70.88
71643;BME280;59438;45.014;39.006;2023-04-06T00:21:55;100832.69;;;11.88;69.91
71643;BME280;59438;45.014;39.006;2023-04-06T00:24:22;100830.91;;;11.89;70.27
71643;BME280;59438;45.014;39.006;2023-04-06T00:26:48;100822.22;;;11.85;70.03
71643;BME280;59438;45.014;39.006;2023-04-06T00:29:14;100822.94;;;11.91;69.61
71643;BME280;59438;45.014;39.006;2023-04-06T00:31:41;100827.28;;;11.92;70.09
71643;BME280;59438;45.014;39.006;2023-04-06T00:34:07;100822.06;;;11.90;70.35
71643;BME280;59438;45.014;39.006;2023-04-06T00:36:35;100828.22;;;11.91;70.41
71643;BME280;59438;45.014;39.006;2023-04-06T00:39:02;100829.91;;;11.92;70.12
71643;BME280;59438;45.014;39.006;2023-04-06T00:41:28;100831.63;;;11.93;70.00
71643;BME280;59438;45.014;39.006;2023-04-06T00:43:55;100834.28;;;11.93;69.79
71643;BME280;59438;45.014;39.006;2023-04-06T00:46:21;100835.97;;;11.94;69.79
71643;BME280;59438;45.014;39.006;2023-04-06T00:48:47;100835.16;;;11.92;70.29
71643;BME280;59438;45.014;39.006;2023-04-06T00:51:14;100835.16;;;11.92;70.22
71643;BME280;59438;45.014;39.006;2023-04-06T00:53:42;100837.00;;;11.89;70.24
71643;BME280;59438;45.014;39.006;2023-04-06T00:56:08;100840.44;;;11.92;69.94
71643;BME280;59438;45.014;39.006;2023-04-06T00:58:35;100839.66;;;11.89;69.86
71643;BME280;59438;45.014;39.006;2023-04-06T01:01:01;100834.38;;;11.89;70.31
71643;BME280;59438;45.014;39.006;2023-04-06T01:03:28;100835.44;;;11.84;70.76
71643;BME280;59438;45.014;39.006;2023-04-06T01:05:54;100838.81;;;11.87;70.38
71643;BME280;59438;45.014;39.006;2023-04-06T01:08:20;100835.44;;;11.84;70.36
71643;BME280;59438;45.014;39.006;2023-04-06T01:10:48;100840.66;;;11.85;70.90
71643;BME280;59438;45.014;39.006;2023-04-06T01:13:15;100837.22;;;11.83;70.17
71643;BME280;59438;45.014;39.006;2023-04-06T01:15:42;100845.25;;;11.80;70.45
71643;BME280;59438;45.014;39.006;2023-04-06T01:18:08;100844.28;;;11.83;70.37
71643;BME280;59438;45.014;39.006;2023-04-06T01:20:35;100849.59;;;11.81;70.75
71643;BME280;59438;45.014;39.006;2023-04-06T01:23:02;100849.59;;;11.81;70.79
71643;BME280;59438;45.014;39.006;2023-04-06T01:25:29;100840.91;;;11.79;70.48
71643;BME280;59438;45.014;39.006;2023-04-06T01:27:55;100841.78;;;11.80;70.67
71643;BME280;59438;45.014;39.006;2023-04-06T01:30:22;100839.19;;;11.78;70.90
71643;BME280;59438;45.014;39.006;2023-04-06T01:32:48;100849.72;;;11.78;71.29
71643;BME280;59438;45.014;39.006;2023-04-06T01:35:15;100847.09;;;11.78;71.13
71643;BME280;59438;45.014;39.006;2023-04-06T01:37:41;100856.81;;;11.76;70.99
71643;BME280;59438;45.014;39.006;2023-04-06T01:40:10;100855.03;;;11.77;71.32
71643;BME280;59438;45.014;39.006;2023-04-06T01:42:36;100844.66;;;11.74;70.86
71643;BME280;59438;45.014;39.006;2023-04-06T01:45:04;100855.09;;;11.75;70.95
71643;BME280;59438;45.014;39.006;2023-04-06T01:47:30;100861.25;;;11.76;71.11
71643;BME280;59438;45.014;39.006;2023-04-06T01:49:57;100859.50;;;11.75;70.74
71643;BME280;59438;45.014;39.006;2023-04-06T01:52:23;100859.50;;;11.75;70.80
71643;BME280;59438;45.014;39.006;2023-04-06T01:54:49;100859.50;;;11.75;71.34
71643;BME280;59438;45.014;39.006;2023-04-06T01:57:17;100856.03;;;11.74;71.16
71643;BME280;59438;45.014;39.006;2023-04-06T01:59:44;100863.91;;;11.74;70.85
71643;BME280;59438;45.014;39.006;2023-04-06T02:02:10;100859.50;;;11.75;71.19
71643;BME280;59438;45.014;39.006;2023-04-06T02:04:36;100864.72;;;11.76;70.91
71643;BME280;59438;45.014;39.006;2023-04-06T02:07:03;100866.41;;;11.77;71.61
71643;BME280;59438;45.014;39.006;2023-04-06T02:09:29;100867.34;;;11.76;70.88
71643;BME280;59438;45.014;39.006;2023-04-06T02:11:56;100863.00;;;11.75;70.79
71643;BME280;59438;45.014;39.006;2023-04-06T02:14:25;100876.09;;;11.77;71.54
71643;BME280;59438;45.014;39.006;2023-04-06T02:16:51;100872.63;;;11.76;71.42
71643;BME280;59438;45.014;39.006;2023-04-06T02:19:18;100867.47;;;11.73;71.17
71643;BME280;59438;45.014;39.006;2023-04-06T02:21:44;100864.72;;;11.76;70.87
71643;BME280;59438;45.014;39.006;2023-04-06T02:24:11;100865.56;;;11.77;71.50
71643;BME280;59438;45.014;39.006;2023-04-06T02:26:37;100863.78;;;11.77;71.35
71643;BME280;59438;45.014;39.006;2023-04-06T02:29:03;100864.66;;;11.78;71.17
71643;BME280;59438;45.014;39.006;2023-04-06T02:31:31;100874.31;;;11.77;71.28
71643;BME280;59438;45.014;39.006;2023-04-06T02:33:58;100871.69;;;11.77;71.53
71643;BME280;59438;45.014;39.006;2023-04-06T02:36:24;100868.34;;;11.74;71.22
71643;BME280;59438;45.014;39.006;2023-04-06T02:38:51;100873.47;;;11.77;71.43
71643;BME280;59438;45.014;39.006;2023-04-06T02:41:17;100879.66;;;11.76;71.21
71643;BME280;59438;45.014;39.006;2023-04-06T02:43:43;100876.22;;;11.74;71.91
71643;BME280;59438;45.014;39.006;2023-04-06T02:46:10;100876.28;;;11.72;71.89
71643;BME280;59438;45.014;39.006;2023-04-06T02:48:38;100875.44;;;11.72;72.43
71643;BME280;59438;45.014;39.006;2023-04-06T02:51:04;100890.34;;;11.71;71.78
71643;BME280;59438;45.014;39.006;2023-04-06T02:53:31;100886.13;;;11.67;71.74
71643;BME280;59438;45.014;39.006;2023-04-06T02:55:57;100893.91;;;11.70;71.83
71643;BME280;59438;45.014;39.006;2023-04-06T02:58:23;100893.09;;;11.68;71.23
71643;BME280;59438;45.014;39.006;2023-04-06T03:00:50;100898.38;;;11.68;71.76
71643;BME280;59438;45.014;39.006;2023-04-06T03:03:16;100906.25;;;11.68;71.55
71643;BME280;59438;45.014;39.006;2023-04-06T03:05:44;100903.63;;;11.68;71.96
71643;BME280;59438;45.014;39.006;2023-04-06T03:08:10;100899.28;;;11.67;71.96
71643;BME280;59438;45.014;39.006;2023-04-06T03:10:37;100903.63;;;11.68;71.59
71643;BME280;59438;45.014;39.006;2023-04-06T03:13:03;100907.13;;;11.68;71.55
71643;BME280;59438;45.014;39.006;2023-04-06T03:15:30;100898.38;;;11.68;71.53
71643;BME280;59438;45.014;39.006;2023-04-06T03:17:57;100898.56;;;11.63;71.88
71643;BME280;59438;45.014;39.006;2023-04-06T03:20:24;100884.84;;;11.55;72.29
71643;BME280;59438;45.014;39.006;2023-04-06T03:22:51;100895.94;;;11.63;72.08
71643;BME280;59438;45.014;39.006;2023-04-06T03:25:18;100907.97;;;11.69;71.54
71643;BME280;59438;45.014;39.006;2023-04-06T03:27:44;100906.25;;;11.68;72.16
71643;BME280;59438;45.014;39.006;2023-04-06T03:30:11;100911.53;;;11.68;72.22
71643;BME280;59438;45.014;39.006;2023-04-06T03:32:38;100910.69;;;11.67;72.30
71643;BME280;59438;45.014;39.006;2023-04-06T03:35:05;100917.69;;;11.67;72.17
71643;BME280;59438;45.014;39.006;2023-04-06T03:37:31;100911.53;;;11.68;71.65
71643;BME280;59438;45.014;39.006;2023-04-06T03:39:59;100917.69;;;11.67;72.34
71643;BME280;59438;45.014;39.006;2023-04-06T03:42:25;100911.53;;;11.68;71.83
71643;BME280;59438;45.014;39.006;2023-04-06T03:44:52;100908.84;;;11.69;72.54
71643;BME280;59438;45.014;39.006;2023-04-06T03:47:18;100920.22;;;11.70;71.75
71643;BME280;59438;45.014;39.006;2023-04-06T03:49:45;100925.47;;;11.70;72.18
71643;BME280;59438;45.014;39.006;2023-04-06T03:52:11;100919.28;;;11.71;72.61
71643;BME280;59438;45.014;39.006;2023-04-06T03:54:37;100924.50;;;11.73;72.74
71643;BME280;59438;45.014;39.006;2023-04-06T03:57:05;100922.72;;;11.73;72.85
71643;BME280;59438;45.014;39.006;2023-04-06T03:59:32;100924.50;;;11.73;72.85
71643;BME280;59438;45.014;39.006;2023-04-06T04:01:58;100926.34;;;11.70;72.06
71643;BME280;59438;45.014;39.006;2023-04-06T04:04:25;100926.38;;;11.69;72.90
71643;BME280;59438;45.014;39.006;2023-04-06T04:06:51;100929.00;;;11.69;73.15
71643;BME280;59438;45.014;39.006;2023-04-06T04:09:17;100942.31;;;11.66;73.20
71643;BME280;59438;45.014;39.006;2023-04-06T04:11:44;100943.91;;;11.70;72.89
71643;BME280;59438;45.014;39.006;2023-04-06T04:14:12;100940.34;;;11.71;73.06
71643;BME280;59438;45.014;39.006;2023-04-06T04:16:38;100950.75;;;11.74;72.64
71643;BME280;59438;45.014;39.006;2023-04-06T04:19:04;100947.19;;;11.75;72.36
71643;BME280;59438;45.014;39.006;2023-04-06T04:21:31;100943.63;;;11.78;73.06
71643;BME280;59438;45.014;39.006;2023-04-06T04:23:58;100948.69;;;11.82;73.04
71643;BME280;59438;45.014;39.006;2023-04-06T04:26:24;100941.59;;;11.84;73.07
71643;BME280;59438;45.014;39.006;2023-04-06T04:28:50;100944.09;;;11.87;72.39
71643;BME280;59438;45.014;39.006;2023-04-06T04:31:18;100951.00;;;11.92;72.83
71643;BME280;59438;45.014;39.006;2023-04-06T04:33:45;100949.09;;;11.95;72.74
71643;BME280;59438;45.014;39.006;2023-04-06T04:36:11;100949.84;;;11.99;72.07
71643;BME280;59438;45.014;39.006;2023-04-06T04:38:37;100944.50;;;12.00;72.56
71643;BME280;59438;45.014;39.006;2023-04-06T04:41:04;100943.59;;;12.01;72.17
71643;BME280;59438;45.014;39.006;2023-04-06T04:43:30;100948.44;;;12.12;72.53
71643;BME280;59438;45.014;39.006;2023-04-06T04:45:57;100955.25;;;12.18;72.81
71643;BME280;59438;45.014;39.006;2023-04-06T04:48:25;100951.53;;;12.23;72.70
71643;BME280;59438;45.014;39.006;2023-04-06T04:50:51;100930.84;;;12.13;72.22
71643;BME280;59438;45.014;39.006;2023-04-06T04:53:17;100961.88;;;12.28;72.03
71643;BME280;59438;45.014;39.006;2023-04-06T04:55:44;100962.72;;;12.28;72.38
71643;BME280;59438;45.014;39.006;2023-04-06T04:58:10;100955.59;;;12.30;72.30
71643;BME280;59438;45.014;39.006;2023-04-06T05:00:37;100960.03;;;12.30;72.36
71643;BME280;59438;45.014;39.006;2023-04-06T05:03:04;100960.94;;;12.29;72.14
71643;BME280;59438;45.014;39.006;2023-04-06T05:05:32;100953.22;;;12.24;72.22
71643;BME280;59438;45.014;39.006;2023-04-06T05:07:59;100958.44;;;12.26;71.90
71643;BME280;59438;45.014;39.006;2023-04-06T05:10:25;100966.34;;;12.26;71.94
71643;BME280;59438;45.014;39.006;2023-04-06T05:12:52;100963.75;;;12.24;72.43
71643;BME280;59438;45.014;39.006;2023-04-06T05:15:18;100970.84;;;12.22;71.74
71643;BME280;59438;45.014;39.006;2023-04-06T05:17:45;100967.44;;;12.20;72.31
71643;BME280;59438;45.014;39.006;2023-04-06T05:20:11;100975.31;;;12.20;72.20
71643;BME280;59438;45.014;39.006;2023-04-06T05:22:39;100975.31;;;12.20;73.01
71643;BME280;59438;45.014;39.006;2023-04-06T05:25:06;100983.13;;;12.23;72.44
71643;BME280;59438;45.014;39.006;2023-04-06T05:27:33;100980.34;;;12.26;72.09
71643;BME280;59438;45.014;39.006;2023-04-06T05:29:59;100973.31;;;12.27;72.37
71643;BME280;59438;45.014;39.006;2023-04-06T05:32:27;100952.91;;;12.10;72.69
71643;BME280;59438;45.014;39.006;2023-04-06T05:34:53;100963.09;;;12.19;72.13
71643;BME280;59438;45.014;39.006;2023-04-06T05:37:20;100970.13;;;12.19;72.15
71643;BME280;59438;45.014;39.006;2023-04-06T05:39:47;100985.38;;;12.33;72.62
71643;BME280;59438;45.014;39.006;2023-04-06T05:42:14;100989.66;;;12.35;72.72
71643;BME280;59438;45.014;39.006;2023-04-06T05:44:40;100986.97;;;12.37;72.56
71643;BME280;59438;45.014;39.006;2023-04-06T05:47:07;100971.31;;;12.34;72.43
71643;BME280;59438;45.014;39.006;2023-04-06T05:49:33;100983.34;;;12.39;72.60
71643;BME280;59438;45.014;39.006;2023-04-06T05:52:00;100985.13;;;12.39;72.88
71643;BME280;59438;45.014;39.006;2023-04-06T05:54:26;100994.69;;;12.41;72.74
71643;BME280;59438;45.014;39.006;2023-04-06T05:56:54;100993.78;;;12.42;73.74
71643;BME280;59438;45.014;39.006;2023-04-06T05:59:20;100995.47;;;12.43;73.34
71643;BME280;59438;45.014;39.006;2023-04-06T06:01:47;101001.53;;;12.45;73.37
71643;BME280;59438;45.014;39.006;2023-04-06T06:04:13;100998.91;;;12.45;73.06
71643;BME280;59438;45.014;39.006;2023-04-06T06:06:40;100999.00;;;12.44;73.26
71643;BME280;59438;45.014;39.006;2023-04-06T06:09:06;101000.75;;;12.43;72.99
71643;BME280;59438;45.014;39.006;2023-04-06T06:11:33;101010.50;;;12.41;72.92
71643;BME280;59438;45.014;39.006;2023-04-06T06:14:01;101012.28;;;12.41;73.61
71643;BME280;59438;45.014;39.006;2023-04-06T06:16:27;101015.84;;;12.40;73.29
71643;BME280;59438;45.014;39.006;2023-04-06T06:18:54;101014.97;;;12.39;73.62
71643;BME280;59438;45.014;39.006;2023-04-06T06:21:20;101028.94;;;12.41;73.34
71643;BME280;59438;45.014;39.006;2023-04-06T06:23:46;101016.56;;;12.43;73.63
71643;BME280;59438;45.014;39.006;2023-04-06T06:26:13;101024.34;;;12.46;73.68
71643;BME280;59438;45.014;39.006;2023-04-06T06:28:39;101018.16;;;12.47;73.52
71643;BME280;59438;45.014;39.006;2023-04-06T06:31:07;101020.69;;;12.50;73.61
71643;BME280;59438;45.014;39.006;2023-04-06T06:33:34;101025.75;;;12.55;73.59
71643;BME280;59438;45.014;39.006;2023-04-06T06:36:00;101027.47;;;12.56;73.36
71643;BME280;59438;45.014;39.006;2023-04-06T06:38:26;101025.66;;;12.58;73.24
71643;BME280;59438;45.014;39.006;2023-04-06T06:40:53;101022.13;;;12.58;73.44
71643;BME280;59438;45.014;39.006;2023-04-06T06:43:19;101029.06;;;12.60;73.30
71643;BME280;59438;45.014;39.006;2023-04-06T06:45:46;101030.13;;;12.56;73.51
71643;BME280;59438;45.014;39.006;2023-04-06T06:48:14;101033.66;;;12.55;73.60
71643;BME280;59438;45.014;39.006;2023-04-06T06:50:40;101030.38;;;12.50;73.49
71643;BME280;59438;45.014;39.006;2023-04-06T06:53:06;101034.94;;;12.45;73.33
71643;BME280;59438;45.014;39.006;2023-04-06T06:55:33;101030.06;;;12.36;73.32
71643;BME280;59438;45.014;39.006;2023-04-06T06:57:59;101036.59;;;12.25;73.02
71643;BME280;59438;45.014;39.006;2023-04-06T07:00:26;101032.38;;;12.21;73.01
71643;BME280;59438;45.014;39.006;2023-04-06T07:02:52;101045.63;;;12.18;73.55
71643;BME280;59438;45.014;39.006;2023-04-06T07:05:20;101041.41;;;12.14;73.40
71643;BME280;59438;45.014;39.006;2023-04-06T07:07:46;101030.88;;;12.14;73.70
71643;BME280;59438;45.014;39.006;2023-04-06T07:10:13;101038.81;;;12.13;73.59
71643;BME280;59438;45.014;39.006;2023-04-06T07:12:39;101036.31;;;12.09;73.66
71643;BME280;59438;45.014;39.006;2023-04-06T07:15:07;101043.38;;;12.09;73.95
71643;BME280;59438;45.014;39.006;2023-04-06T07:17:33;101053.94;;;12.07;73.37
71643;BME280;59438;45.014;39.006;2023-04-06T07:20:00;101049.47;;;12.09;73.63
71643;BME280;59438;45.014;39.006;2023-04-06T07:22:28;101039.81;;;12.10;74.08
71643;BME280;59438;45.014;39.006;2023-04-06T07:24:54;101030.34;;;12.04;73.76
71643;BME280;59438;45.014;39.006;2023-04-06T07:27:21;101048.41;;;12.15;73.98
71643;BME280;59438;45.014;39.006;2023-04-06T07:29:47;101041.34;;;12.16;73.76
71643;BME280;59438;45.014;39.006;2023-04-06T07:32:13;101045.63;;;12.18;73.51
71643;BME280;59438;45.014;39.006;2023-04-06T07:34:40;101049.06;;;12.20;73.96
71643;BME280;59438;45.014;39.006;2023-04-06T07:37:06;101053.34;;;12.23;74.08
71643;BME280;59438;45.014;39.006;2023-04-06T07:39:34;101046.94;;;12.30;74.76
71643;BME280;59438;45.014;39.006;2023-04-06T07:42:01;101037.22;;;12.32;74.38
71643;BME280;59438;45.014;39.006;2023-04-06T07:44:27;101046.34;;;12.45;74.06
71643;BME280;59438;45.014;39.006;2023-04-06T07:46:53;101040.75;;;12.53;74.26
71643;BME280;59438;45.014;39.006;2023-04-06T07:49:20;101040.47;;;12.61;74.37
71643;BME280;59438;45.014;39.006;2023-04-06T07:51:46;101035.75;;;12.69;73.72
71643;BME280;59438;45.014;39.006;2023-04-06T07:54:13;101044.41;;;12.73;74.00
71643;BME280;59438;45.014;39.006;2023-04-06T07:56:41;101037.19;;;12.76;73.95
71643;BME280;59438;45.014;39.006;2023-04-06T07:59:07;101039.78;;;12.78;73.73
71643;BME280;59438;45.014;39.006;2023-04-06T08:01:34;101042.34;;;12.79;73.31
71643;BME280;59438;45.014;39.006;2023-04-06T08:04:01;101044.44;;;12.71;73.54
71643;BME280;59438;45.014;39.006;2023-04-06T08:06:27;101039.44;;;12.65;73.80
71643;BME280;59438;45.014;39.006;2023-04-06T08:08:54;101042.31;;;12.59;73.71
71643;BME280;59438;45.014;39.006;2023-04-06T08:11:20;101046.84;;;12.55;73.88
71643;BME280;59438;45.014;39.006;2023-04-06T08:13:48;101041.69;;;12.52;74.25
71643;BME280;59438;45.014;39.006;2023-04-06T08:16:15;101032.31;;;12.45;73.86
71643;BME280;59438;45.014;39.006;2023-04-06T08:18:41;101043.53;;;12.50;74.07
71643;BME280;59438;45.014;39.006;2023-04-06T08:21:07;101016.00;;;12.35;74.00
71643;BME280;59438;45.014;39.006;2023-04-06T08:23:34;101048.06;;;12.46;74.35
71643;BME280;59438;45.014;39.006;2023-04-06T08:26:00;101042.03;;;12.43;74.44
71643;BME280;59438;45.014;39.006;2023-04-06T08:28:27;101040.34;;;12.42;74.49
71643;BME280;59438;45.014;39.006;2023-04-06T08:30:55;101037.63;;;12.43;74.39
71643;BME280;59438;45.014;39.006;2023-04-06T08:33:21;101035.25;;;12.37;74.56
71643;BME280;59438;45.014;39.006;2023-04-06T08:35:47;101043.78;;;12.44;74.55
71643;BME280;59438;45.014;39.006;2023-04-06T08:38:14;101054.31;;;12.44;74.46
71643;BME280;59438;45.014;39.006;2023-04-06T08:40:40;101056.06;;;12.43;74.53
71643;BME280;59438;45.014;39.006;2023-04-06T08:43:12;101025.13;;;12.26;74.73
71643;BME280;59438;45.014;39.006;2023-04-06T08:45:40;101064.72;;;12.47;74.52
71643;BME280;59438;45.014;39.006;2023-04-06T08:48:08;101060.25;;;12.49;74.54
71643;BME280;59438;45.014;39.006;2023-04-06T08:50:35;101061.84;;;12.53;74.57
71643;BME280;59438;45.014;39.006;2023-04-06T08:53:02;101067.81;;;12.58;74.26
71643;BME280;59438;45.014;39.006;2023-04-06T08:55:29;101069.41;;;12.62;74.60
71643;BME280;59438;45.014;39.006;2023-04-06T08:57:56;101072.09;;;12.61;74.40
71643;BME280;59438;45.014;39.006;2023-04-06T09:00:23;101074.53;;;12.65;74.42
71643;BME280;59438;45.014;39.006;2023-04-06T09:02:53;101072.19;;;12.58;74.65
71643;BME280;59438;45.014;39.006;2023-04-06T09:05:24;101035.25;;;12.37;74.87
71643;BME280;59438;45.014;39.006;2023-04-06T09:07:51;101084.34;;;12.62;75.41
71643;BME280;59438;45.014;39.006;2023-04-06T09:10:17;101074.34;;;12.48;74.15
71643;BME280;59438;45.014;39.006;2023-04-06T09:12:44;101080.03;;;12.37;74.43
71643;BME280;59438;45.014;39.006;2023-04-06T09:15:18;101078.50;;;12.32;75.65
71643;BME280;59438;45.014;39.006;2023-04-06T09:17:44;101088.09;;;12.33;74.62
71643;BME280;59438;45.014;39.006;2023-04-06T09:20:11;101080.38;;;12.28;74.69
71643;BME280;59438;45.014;39.006;2023-04-06T09:22:40;101077.63;;;12.31;74.92
71643;BME280;59438;45.014;39.006;2023-04-06T09:25:07;101082.78;;;12.34;74.86
71643;BME280;59438;45.014;39.006;2023-04-06T09:27:36;101070.50;;;12.33;75.23
71643;BME280;59438;45.014;39.006;2023-04-06T09:30:05;101076.19;;;12.46;74.99
71643;BME280;59438;45.014;39.006;2023-04-06T09:32:31;101075.97;;;12.52;74.95
71643;BME280;59438;45.014;39.006;2023-04-06T09:35:06;101084.34;;;12.62;76.11
71643;BME280;59438;45.014;39.006;2023-04-06T09:37:32;101078.03;;;12.66;74.78
71643;BME280;59438;45.014;39.006;2023-04-06T09:40:04;101067.63;;;12.63;75.52
71643;BME280;59438;45.014;39.006;2023-04-06T09:42:31;101082.25;;;12.70;74.58
71643;BME280;59438;45.014;39.006;2023-04-06T09:44:58;101086.66;;;12.69;74.46
71643;BME280;59438;45.014;39.006;2023-04-06T09:47:24;101084.84;;;12.72;74.57
71643;BME280;59438;45.014;39.006;2023-04-06T09:49:55;101020.97;;;12.43;75.71
71643;BME280;59438;45.014;39.006;2023-04-06T09:52:24;101075.78;;;12.79;75.08
71643;BME280;59438;45.014;39.006;2023-04-06T09:54:52;101060.22;;;12.73;74.74
71643;BME280;59438;45.014;39.006;2023-04-06T09:57:25;101091.22;;;12.88;75.02
71643;BME280;59438;45.014;39.006;2023-04-06T09:59:59;101083.34;;;12.86;74.85
71643;BME280;59438;45.014;39.006;2023-04-06T10:02:32;101064.53;;;12.74;74.84
71643;BME280;59438;45.014;39.006;2023-04-06T10:05:07;101067.78;;;12.80;74.65
71643;BME280;59438;45.014;39.006;2023-04-06T10:07:36;101082.25;;;12.92;74.46
71643;BME280;59438;45.014;39.006;2023-04-06T10:10:05;101087.47;;;12.94;74.42
71643;BME280;59438;45.014;39.006;2023-04-06T10:12:33;101095.38;;;12.94;74.08
71643;BME280;59438;45.014;39.006;2023-04-06T10:14:59;101088.56;;;12.88;74.10
71643;BME280;59438;45.014;39.006;2023-04-06T10:17:26;101091.34;;;12.85;73.98
71643;BME280;59438;45.014;39.006;2023-04-06T10:19:55;101086.38;;;12.77;74.18
71643;BME280;59438;45.014;39.006;2023-04-06T10:22:32;101078.81;;;12.68;74.82
71643;BME280;59438;45.014;39.006;2023-04-06T10:24:58;101096.88;;;12.79;74.04
71643;BME280;59438;45.014;39.006;2023-04-06T10:27:29;101090.66;;;12.80;74.47
71643;BME280;59438;45.014;39.006;2023-04-06T10:30:01;101046.09;;;12.52;74.37
71643;BME280;59438;45.014;39.006;2023-04-06T10:32:35;101091.59;;;12.79;74.37
71643;BME280;59438;45.014;39.006;2023-04-06T10:35:08;101091.66;;;12.77;74.45
71643;BME280;59438;45.014;39.006;2023-04-06T10:37:50;101091.59;;;12.79;74.58
71643;BME280;59438;45.014;39.006;2023-04-06T10:40:24;101098.63;;;12.78;74.65
71643;BME280;59438;45.014;39.006;2023-04-06T10:42:51;101095.94;;;12.80;74.02
71643;BME280;59438;45.014;39.006;2023-04-06T10:45:23;101098.25;;;12.87;74.22
71643;BME280;59438;45.014;39.006;2023-04-06T10:47:50;101093.53;;;12.96;73.42
71643;BME280;59438;45.014;39.006;2023-04-06T10:50:19;101088.88;;;13.02;73.23
71643;BME280;59438;45.014;39.006;2023-04-06T10:52:46;101092.19;;;13.07;73.05
71643;BME280;59438;45.014;39.006;2023-04-06T10:55:13;101094.28;;;13.20;72.89
71643;BME280;59438;45.014;39.006;2023-04-06T10:57:40;101084.03;;;13.34;72.70
71643;BME280;59438;45.014;39.006;2023-04-06T11:00:08;101078.91;;;13.52;72.63
71643;BME280;59438;45.014;39.006;2023-04-06T11:02:36;101087.56;;;13.76;72.58
71643;BME280;59438;45.014;39.006;2023-04-06T11:05:02;101063.69;;;13.77;71.78
71643;BME280;59438;45.014;39.006;2023-04-06T11:07:29;101085.94;;;13.92;71.30
71643;BME280;59438;45.014;39.006;2023-04-06T11:09:56;101089.84;;;13.83;71.20
71643;BME280;59438;45.014;39.006;2023-04-06T11:12:23;101079.91;;;13.69;71.28
71643;BME280;59438;45.014;39.006;2023-04-06T11:14:54;101077.59;;;13.62;70.97
71643;BME280;59438;45.014;39.006;2023-04-06T11:17:26;101092.91;;;13.54;71.68
71643;BME280;59438;45.014;39.006;2023-04-06T11:19:53;101096.34;;;13.56;71.66
71643;BME280;59438;45.014;39.006;2023-04-06T11:22:20;101102.34;;;13.39;71.39
71643;BME280;59438;45.014;39.006;2023-04-06T11:24:46;101091.53;;;13.23;71.39
71643;BME280;59438;45.014;39.006;2023-04-06T11:27:13;101098.13;;;13.13;71.75
71643;BME280;59438;45.014;39.006;2023-04-06T11:29:40;101100.25;;;13.03;72.04
71643;BME280;59438;45.014;39.006;2023-04-06T11:32:06;101095.25;;;12.97;71.63
71643;BME280;59438;45.014;39.006;2023-04-06T11:34:34;101107.63;;;12.95;71.90
71643;BME280;59438;45.014;39.006;2023-04-06T11:37:04;101071.72;;;12.70;71.82
71643;BME280;59438;45.014;39.006;2023-04-06T11:39:38;101109.56;;;12.91;72.03
71643;BME280;59438;45.014;39.006;2023-04-06T11:42:05;101100.09;;;12.85;71.71
71643;BME280;59438;45.014;39.006;2023-04-06T11:44:33;101104.59;;;12.83;72.06
71643;BME280;59438;45.014;39.006;2023-04-06T11:47:01;101093.59;;;12.72;72.13
71643;BME280;59438;45.014;39.006;2023-04-06T11:49:28;101111.81;;;12.78;72.01
71643;BME280;59438;45.014;39.006;2023-04-06T11:51:54;101111.13;;;12.73;71.98
71643;BME280;59438;45.014;39.006;2023-04-06T11:54:31;101114.88;;;12.67;72.24
71643;BME280;59438;45.014;39.006;2023-04-06T11:56:58;101111.63;;;12.61;71.72
71643;BME280;59438;45.014;39.006;2023-04-06T11:59:24;101109.22;;;12.55;71.84
71643;BME280;59438;45.014;39.006;2023-04-06T12:01:52;101121.69;;;12.49;71.74
71643;BME280;59438;45.014;39.006;2023-04-06T12:04:18;101112.38;;;12.41;71.89
71643;BME280;59438;45.014;39.006;2023-04-06T12:06:45;101124.00;;;12.35;72.11
71643;BME280;59438;45.014;39.006;2023-04-06T12:09:11;101119.66;;;12.34;72.24
71643;BME280;59438;45.014;39.006;2023-04-06T12:11:39;101120.75;;;12.28;72.09
71643;BME280;59438;45.014;39.006;2023-04-06T12:14:06;101121.81;;;12.23;71.95
71643;BME280;59438;45.014;39.006;2023-04-06T12:16:32;101127.09;;;12.23;72.26
71643;BME280;59438;45.014;39.006;2023-04-06T12:18:59;101129.81;;;12.21;71.92
71643;BME280;59438;45.014;39.006;2023-04-06T12:21:27;101128.19;;;12.17;72.57
71643;BME280;59438;45.014;39.006;2023-04-06T12:23:53;101129.91;;;12.18;72.52
71643;BME280;59438;45.014;39.006;2023-04-06T12:26:20;101137.00;;;12.16;72.28
71643;BME280;59438;45.014;39.006;2023-04-06T12:28:48;101141.59;;;12.11;72.29
71643;BME280;59438;45.014;39.006;2023-04-06T12:31:15;101135.66;;;12.04;72.32
71643;BME280;59438;45.014;39.006;2023-04-06T12:33:41;101138.53;;;11.98;72.50
71643;BME280;59438;45.014;39.006;2023-04-06T12:36:11;101137.88;;;11.92;73.10
71643;BME280;59438;45.014;39.006;2023-04-06T12:38:38;101141.50;;;11.89;72.54
71643;BME280;59438;45.014;39.006;2023-04-06T12:41:04;101142.44;;;11.86;73.01